»·PEaware :: N149CD KSNA-KOXR

N149CD :: KSNA-KOXR

FLIGHT INFORMATION

Flight Status: Arrived
Operator: Privately registered:
United States
More flights under this callsign
Pilot: Nathan E. (30132)
Aircraft: CESSNA 172 SKYHAWK
(C172)
More flights by this aircraft type
Origin: KSNA John Wayne-Orange Co
United States
Destination: KOXR Oxnard
United States
More flights between these airports :: More routes between these airports
Route: SLI V23 POPPR SMO125 SMO VNY
File this flight plan on PilotEdge
Remarks: TEC route CSTP24
Altitude:
(Current/Filed)
4,000ft
Speed:
(Current/Filed)
110kts
Departed: 11-Sep-20 06:54 PM
Arrived: 11-Sep-20 07:42 PM
Distance/Time
Traveled:
73nm/0:48
Distance/Time
To Go:
Arrived

Flight Plot

Page will automatically refresh every two minutes.


Map Options




Map Legend


Flown Route
Filed Route
Departure Airport
Arrival Airport
Navaid (VOR, NDB)
Fix

Horizontal Profiles

Position Reports

Time Latitude Longitude Heading Altitude Ground
Speed
11-Sep-20 18:38 33.668086 -117.871025 221 60ft 0kts
11-Sep-20 18:39 33.668086 -117.871025 221 60ft 0kts
11-Sep-20 18:40 33.668086 -117.871025 221 60ft 0kts
11-Sep-20 18:41 33.668086 -117.871025 221 60ft 0kts
11-Sep-20 18:42 33.668086 -117.871025 221 60ft 0kts
11-Sep-20 18:43 33.668086 -117.871025 221 60ft 0kts
11-Sep-20 18:44 33.668086 -117.871025 221 60ft 0kts
11-Sep-20 18:45 33.668086 -117.871025 221 60ft 0kts
11-Sep-20 18:46 33.668086 -117.871025 221 60ft 0kts
11-Sep-20 18:47 33.668533 -117.871491 18 60ft 5kts
11-Sep-20 18:48 33.672518 -117.867863 27 60ft 19kts
11-Sep-20 18:49 33.676158 -117.865786 27 60ft 23kts
11-Sep-20 18:50 33.679970 -117.863642 297 60ft 0kts
11-Sep-20 18:51 33.679970 -117.863642 298 60ft 0kts
11-Sep-20 18:53 33.680148 -117.864098 259 60ft 4kts
11-Sep-20 18:54 33.666575 -117.872333 204 498ft 72kts
11-Sep-20 18:55 33.655807 -117.890226 279 1267ft 76kts
11-Sep-20 18:56 33.670319 -117.909849 310 2083ft 80kts
11-Sep-20 18:57 33.685940 -117.929349 309 2853ft 82kts
11-Sep-20 18:58 33.700551 -117.948029 311 3664ft 74kts
11-Sep-20 18:59 33.716802 -117.968919 313 3997ft 105kts
11-Sep-20 19:00 33.736757 -117.994505 313 3995ft 105kts
11-Sep-20 19:01 33.750356 -118.024557 282 3996ft 107kts
11-Sep-20 19:02 33.754706 -118.060131 282 3998ft 108kts
11-Sep-20 19:03 33.758733 -118.096071 282 3999ft 109kts
11-Sep-20 19:04 33.762781 -118.132413 282 3999ft 109kts
11-Sep-20 19:05 33.768225 -118.167921 282 3998ft 107kts
11-Sep-20 19:06 33.776747 -118.201417 303 3998ft 104kts
11-Sep-20 19:06 33.790829 -118.225379 311 3999ft 105kts
11-Sep-20 19:08 33.814052 -118.255764 317 3999ft 106kts
11-Sep-20 19:09 33.835722 -118.280281 319 4001ft 107kts
11-Sep-20 19:09 33.854427 -118.300161 320 4003ft 108kts
11-Sep-20 19:11 33.881231 -118.327678 321 4006ft 109kts
11-Sep-20 19:12 33.904752 -118.351378 322 4006ft 110kts
11-Sep-20 19:12 33.924344 -118.370972 322 4006ft 110kts
11-Sep-20 19:13 33.947814 -118.394373 321 4006ft 108kts
11-Sep-20 19:15 33.974763 -118.421272 321 4005ft 107kts
11-Sep-20 19:15 33.993890 -118.440360 320 4005ft 106kts
11-Sep-20 19:16 34.019509 -118.456729 347 4005ft 107kts
11-Sep-20 19:17 34.048937 -118.462625 349 4006ft 108kts
11-Sep-20 19:18 34.079128 -118.467932 351 3991ft 114kts
11-Sep-20 19:19 34.111020 -118.473183 349 3988ft 111kts
11-Sep-20 19:20 34.139217 -118.482258 299 3988ft 104kts
11-Sep-20 19:21 34.144481 -118.517427 281 3990ft 107kts
11-Sep-20 19:22 34.149775 -118.552947 282 3990ft 107kts
11-Sep-20 19:23 34.155092 -118.588427 282 3991ft 107kts
11-Sep-20 19:24 34.160394 -118.623806 282 3992ft 107kts
11-Sep-20 19:25 34.165721 -118.659403 281 3995ft 107kts
11-Sep-20 19:26 34.171053 -118.695120 281 3996ft 108kts
11-Sep-20 19:27 34.176379 -118.730875 280 3997ft 108kts
11-Sep-20 19:28 34.181823 -118.767446 277 3998ft 113kts
11-Sep-20 19:29 34.187428 -118.805316 277 3999ft 114kts
11-Sep-20 19:30 34.193050 -118.843286 277 4000ft 114kts
11-Sep-20 19:31 34.197717 -118.881391 269 3901ft 116kts
11-Sep-20 19:32 34.198305 -118.920351 268 3700ft 113kts
11-Sep-20 19:33 34.198644 -118.958490 268 3631ft 116kts
11-Sep-20 19:34 34.199012 -118.997243 268 3248ft 114kts
11-Sep-20 19:35 34.199374 -119.035695 268 2711ft 114kts
11-Sep-20 19:36 34.199711 -119.073255 268 2120ft 109kts
11-Sep-20 19:37 34.200021 -119.109482 269 1533ft 106kts
11-Sep-20 19:38 34.200279 -119.144340 272 990ft 94kts
11-Sep-20 19:39 34.200518 -119.172060 272 523ft 68kts
11-Sep-20 19:40 34.200662 -119.193704 272 155ft 62kts
11-Sep-20 19:41 34.200742 -119.207387 227 37ft 12kts
11-Sep-20 19:42 34.199782 -119.204322 91 40ft 22kts
11-Sep-20 19:43 34.199234 -119.198519 186 43ft 8kts
11-Sep-20 19:44 34.198776 -119.198206 87 43ft 0kts

Navigation Log

Ident Type
Flight plan parsing failed, navigation log unavailable